createdAt,value
2024-01-11T07:25:46.454Z,99865.94
2024-01-11T07:28:13.265Z,99864.30
2024-01-11T07:30:40.498Z,99860.40
2024-01-11T07:33:08.118Z,99856.11
2024-01-11T07:35:35.578Z,99854.89
2024-01-11T07:38:02.423Z,99851.70
2024-01-11T07:40:29.401Z,99852.80
2024-01-11T07:42:56.029Z,99834.29
2024-01-11T07:45:22.850Z,99827.55
2024-01-11T07:47:49.734Z,99826.02
2024-01-11T07:50:16.428Z,99824.47
2024-01-11T07:52:43.101Z,99811.67
2024-01-11T07:55:11.135Z,99818.97
2024-01-11T07:57:37.936Z,99820.84
2024-01-11T08:00:07.127Z,99822.23
2024-01-11T08:02:39.829Z,99815.63
2024-01-11T08:05:06.771Z,99816.85
2024-01-11T08:07:33.637Z,99810.59
2024-01-11T08:14:28.193Z,99810.45
2024-01-11T08:16:55.057Z,99811.44
2024-01-11T08:19:21.948Z,99802.56
2024-01-11T08:21:48.809Z,99802.70
2024-01-11T08:24:15.500Z,99799.88
2024-01-11T08:26:42.290Z,99806.22
2024-01-11T08:29:09.972Z,99797.68
2024-01-11T08:31:39.353Z,99802.04
2024-01-11T08:34:10.285Z,99800.42
2024-01-11T08:36:38.855Z,99792.39
2024-01-11T08:39:13.044Z,99780.89
2024-01-11T08:41:39.598Z,99778.77
2024-01-11T08:44:06.399Z,99769.44
2024-01-11T08:46:36.116Z,99769.56
2024-01-11T08:49:04.002Z,99768.48
2024-01-11T08:51:31.040Z,99768.54
2024-01-11T08:54:02.744Z,99762.53
2024-01-11T08:56:31.874Z,99759.33
2024-01-11T08:59:00.606Z,99746.38
2024-01-11T09:01:30.000Z,99745.92
2024-01-11T09:03:56.602Z,99739.41
2024-01-11T09:06:23.152Z,99720.70
2024-01-11T09:08:49.742Z,99728.48
2024-01-11T09:11:17.230Z,99716.06
2024-01-11T09:13:44.119Z,99715.53
2024-01-11T09:16:14.432Z,99718.01
2024-01-11T09:18:44.636Z,99715.16
2024-01-11T09:21:12.741Z,99710.04
2024-01-11T09:23:39.639Z,99701.39
2024-01-11T09:26:06.666Z,99685.64
2024-01-11T09:28:33.210Z,99663.27
2024-01-11T09:31:00.613Z,99648.52
2024-01-11T09:33:27.632Z,99654.33
2024-01-11T09:35:55.482Z,99666.71
2024-01-11T09:38:22.977Z,99655.71
2024-01-11T09:41:22.385Z,99643.66
2024-01-11T09:43:54.920Z,99635.42
2024-01-11T09:46:24.828Z,99643.59
2024-01-11T09:48:51.457Z,99625.52
2024-01-11T09:51:18.199Z,99617.09
2024-01-11T09:53:44.944Z,99621.33
2024-01-11T09:56:11.824Z,99629.93
2024-01-11T09:58:39.363Z,99626.11
2024-01-11T10:01:09.839Z,99620.16
2024-01-11T10:03:37.333Z,99614.76
2024-01-11T10:06:04.814Z,99614.17
2024-01-11T10:08:31.513Z,99614.98
2024-01-11T10:10:58.293Z,99614.69
2024-01-11T10:13:29.140Z,99626.72
2024-01-11T10:16:24.959Z,99612.73
2024-01-11T10:18:54.346Z,99603.90
2024-01-11T10:21:21.548Z,99601.84
2024-01-11T10:23:49.398Z,99590.09
2024-01-11T10:26:16.479Z,99585.98
2024-01-11T10:28:45.272Z,99582.92
2024-01-11T10:31:12.472Z,99571.96
2024-01-11T10:33:39.340Z,99572.68
2024-01-11T10:36:10.422Z,99573.44
2024-01-11T10:38:39.417Z,99570.55
2024-01-11T10:41:07.294Z,99554.95
2024-01-11T10:43:37.541Z,99553.61
2024-01-11T10:46:07.285Z,99542.86
2024-01-11T10:48:44.124Z,99538.79
2024-01-11T10:51:13.013Z,99535.70
2024-01-11T10:53:46.472Z,99537.16
2024-01-11T10:56:14.143Z,99530.23
2024-01-11T10:58:41.532Z,99529.20
2024-01-11T11:01:08.795Z,99517.95
2024-01-11T11:03:36.096Z,99510.45
2024-01-11T11:06:03.173Z,99516.14
2024-01-11T11:08:30.065Z,99506.58
2024-01-11T11:10:57.960Z,99490.83
2024-01-11T11:13:25.252Z,99492.81
2024-01-11T11:15:59.457Z,99488.15
2024-01-11T11:18:28.602Z,99477.20
2024-01-11T11:20:56.016Z,99474.09
2024-01-11T11:23:22.750Z,99469.54
2024-01-11T11:25:49.588Z,99476.86
2024-01-11T11:28:16.818Z,99475.30
2024-01-11T11:30:48.513Z,99466.86
2024-01-11T11:33:19.712Z,99462.09
2024-01-11T11:35:47.339Z,99446.52
2024-01-11T11:38:23.612Z,99453.17
2024-01-11T11:40:51.742Z,99452.25
2024-01-11T11:43:18.893Z,99455.77
2024-01-11T11:45:46.498Z,99444.31
2024-01-11T11:48:39.445Z,99444.91
2024-01-11T11:51:14.128Z,99442.66
2024-01-11T11:53:43.041Z,99434.05
2024-01-11T11:56:11.207Z,99429.94
2024-01-11T11:58:39.757Z,99427.61
2024-01-11T12:01:06.868Z,99431.09
2024-01-11T12:03:36.556Z,99423.42
2024-01-11T12:06:04.019Z,99416.89
2024-01-11T12:08:31.593Z,99417.81
2024-01-11T12:10:58.515Z,99410.71
2024-01-11T12:13:25.500Z,99404.48
2024-01-11T12:15:52.234Z,99401.70
2024-01-11T12:18:19.334Z,99396.91
2024-01-11T12:20:46.091Z,99399.60
2024-01-11T12:23:14.483Z,99397.14
2024-01-11T12:25:41.581Z,99390.19
2024-01-11T12:28:08.490Z,99391.36
2024-01-11T12:30:35.492Z,99392.19
2024-01-11T12:33:02.530Z,99389.13
2024-01-11T12:35:30.722Z,99389.85
2024-01-11T12:38:07.208Z,99385.55
2024-01-11T12:40:40.681Z,99388.09
2024-01-11T12:43:08.219Z,99388.84
2024-01-11T12:45:35.836Z,99386.52
2024-01-11T12:48:04.041Z,99387.11
2024-01-11T12:50:34.301Z,99377.83
2024-01-11T12:53:07.550Z,99377.98
2024-01-11T12:55:38.665Z,99375.91
2024-01-11T12:58:12.032Z,99368.14
2024-01-11T13:00:39.443Z,99361.98
2024-01-11T13:03:06.368Z,99362.72
2024-01-11T13:05:35.953Z,99358.05
2024-01-11T13:08:04.515Z,99354.77
2024-01-11T13:10:31.828Z,99353.50
2024-01-11T13:13:03.489Z,99354.44
2024-01-11T13:15:36.908Z,99347.30
2024-01-11T13:18:06.062Z,99345.19
2024-01-11T13:20:33.126Z,99342.73
2024-01-11T13:23:13.041Z,99343.98
2024-01-11T13:25:43.547Z,99346.88
2024-01-11T13:28:11.891Z,99334.40
2024-01-11T13:30:39.969Z,99323.86
2024-01-11T13:33:08.530Z,99332.08
2024-01-11T13:35:36.153Z,99323.67
2024-01-11T13:38:03.427Z,99323.37
2024-01-11T13:40:30.852Z,99320.09
2024-01-11T13:42:58.037Z,99320.59
2024-01-11T13:45:28.653Z,99322.14
2024-01-11T13:47:55.555Z,99318.20
2024-01-11T13:50:25.506Z,99321.33
2024-01-11T13:52:52.745Z,99316.27
2024-01-11T13:55:21.729Z,99318.45
2024-01-11T13:57:51.604Z,99314.06
2024-01-11T14:00:19.077Z,99317.60
2024-01-11T14:02:46.585Z,99322.95
2024-01-11T14:05:14.404Z,99329.75
2024-01-11T14:07:41.781Z,99325.90
2024-01-11T14:10:12.353Z,99331.16
2024-01-11T14:12:39.514Z,99328.70
2024-01-11T14:15:07.189Z,99327.23
2024-01-11T14:17:34.294Z,99322.83
2024-01-11T14:20:02.044Z,99325.44
2024-01-11T14:22:29.530Z,99321.61
2024-01-11T14:24:56.258Z,99327.77
2024-01-11T14:27:23.576Z,99322.73
2024-01-11T14:29:50.413Z,99323.73
2024-01-11T14:32:25.577Z,99320.61
2024-01-11T14:35:04.479Z,99319.63
2024-01-11T14:37:32.422Z,99308.08
2024-01-11T14:39:59.827Z,99308.34
2024-01-11T14:42:27.274Z,99305.94
2024-01-11T14:44:54.230Z,99307.09
2024-01-11T14:47:21.823Z,99303.27
2024-01-11T14:49:48.671Z,99305.45
2024-01-11T14:52:17.948Z,99305.68
2024-01-11T14:54:45.978Z,99307.67
2024-01-11T14:57:13.850Z,99311.09
2024-01-11T14:59:40.719Z,99309.48
2024-01-11T15:02:07.856Z,99309.23
2024-01-11T15:04:34.778Z,99309.61
2024-01-11T15:07:01.697Z,99311.56
2024-01-11T15:09:29.429Z,99308.20
2024-01-11T15:11:56.409Z,99307.91
2024-01-11T15:14:23.323Z,99306.80
2024-01-11T15:16:50.887Z,99304.02
2024-01-11T15:19:18.016Z,99299.03
2024-01-11T15:21:49.290Z,99290.09
